createdAt,value
2018-10-02T18:02:46.466Z,34.30
2018-10-02T18:05:15.299Z,34.40
2018-10-02T18:07:44.130Z,34.40
2018-10-02T18:10:12.998Z,34.40
2018-10-02T18:12:42.039Z,34.40
2018-10-02T18:15:10.921Z,34.40
2018-10-02T18:17:39.758Z,34.50
2018-10-02T18:20:08.597Z,34.40
2018-10-02T18:22:39.112Z,34.50
2018-10-02T18:25:08.072Z,34.50
2018-10-02T18:27:37.272Z,34.50
2018-10-02T18:30:06.023Z,34.50
2018-10-02T18:32:34.866Z,34.40
2018-10-02T18:35:03.743Z,34.60
2018-10-02T18:37:32.608Z,34.60
2018-10-02T18:40:01.460Z,34.60
2018-10-02T18:42:30.301Z,34.50
2018-10-02T18:44:59.163Z,34.50
2018-10-02T18:47:28.138Z,34.60
2018-10-02T18:49:56.976Z,34.60
2018-10-02T18:52:26.219Z,34.60
2018-10-02T18:54:55.518Z,34.60
2018-10-02T18:57:25.634Z,34.70
2018-10-02T18:59:54.469Z,34.70
2018-10-02T19:02:24.221Z,34.60
2018-10-02T19:04:54.870Z,34.60
2018-10-02T19:07:23.707Z,34.60
2018-10-02T19:09:52.585Z,34.60
2018-10-02T19:12:23.115Z,34.60
2018-10-02T19:14:51.968Z,34.70
2018-10-02T19:17:20.828Z,34.70
2018-10-02T19:19:55.056Z,34.70
2018-10-02T19:22:24.295Z,34.70
2018-10-02T19:24:53.616Z,34.70
2018-10-02T19:27:22.397Z,34.70
2018-10-02T19:29:56.954Z,34.70
2018-10-02T19:32:26.481Z,34.80
2018-10-02T19:34:55.311Z,34.80
2018-10-02T19:37:30.083Z,34.80
2018-10-02T19:39:58.924Z,34.80
2018-10-02T19:42:27.840Z,34.80
2018-10-02T19:44:56.788Z,34.80
2018-10-02T19:47:25.665Z,34.80
2018-10-02T19:49:54.477Z,34.80
2018-10-02T19:52:23.756Z,34.80
2018-10-02T19:54:52.987Z,34.80
2018-10-02T19:57:22.980Z,34.90
2018-10-02T19:59:51.931Z,34.90
2018-10-02T20:02:20.793Z,34.80
2018-10-02T20:04:51.478Z,34.90
2018-10-02T20:07:22.041Z,34.90
2018-10-02T20:09:50.895Z,35.00
2018-10-02T20:12:19.715Z,34.90
2018-10-02T20:14:48.779Z,35.00
2018-10-02T20:17:17.603Z,35.00
2018-10-02T20:19:47.265Z,34.90
2018-10-02T20:22:16.171Z,35.00
2018-10-02T20:24:45.715Z,35.00
2018-10-02T20:27:14.617Z,35.00
2018-10-02T20:29:44.882Z,35.00
2018-10-02T20:32:14.095Z,34.80
2018-10-02T20:34:42.934Z,35.10
2018-10-02T20:37:11.814Z,35.00
2018-10-02T20:39:40.651Z,35.10
2018-10-02T20:42:09.496Z,35.10
2018-10-02T20:44:38.440Z,35.10
2018-10-02T20:47:07.724Z,35.10
2018-10-02T20:49:36.644Z,35.20
2018-10-02T20:52:06.122Z,35.20
2018-10-02T20:54:36.710Z,35.10
2018-10-02T20:57:08.617Z,35.10
2018-10-02T20:59:37.565Z,35.20
2018-10-02T21:02:06.480Z,35.10
2018-10-02T21:04:36.937Z,35.30
2018-10-02T21:07:05.792Z,35.20
2018-10-02T21:09:34.635Z,35.20
2018-10-02T21:12:03.507Z,35.20
2018-10-02T21:14:32.359Z,35.20
2018-10-02T21:17:01.287Z,35.30
2018-10-02T21:19:30.189Z,35.20
2018-10-02T21:21:59.015Z,35.20
2018-10-02T21:24:27.843Z,35.30
2018-10-02T21:26:57.153Z,35.30
2018-10-02T21:29:26.234Z,35.30
2018-10-02T21:31:55.060Z,35.30
2018-10-02T21:34:23.901Z,35.40
2018-10-02T21:36:52.737Z,35.30
2018-10-02T21:39:21.554Z,35.40
2018-10-02T21:41:50.482Z,35.40
2018-10-02T21:44:20.618Z,35.40
2018-10-02T21:46:49.519Z,35.40
2018-10-02T21:49:18.366Z,35.50
2018-10-02T21:51:47.235Z,35.40
2018-10-02T21:54:16.067Z,35.40
2018-10-02T21:56:45.948Z,35.50
2018-10-02T21:59:14.815Z,35.50
2018-10-02T22:01:43.679Z,35.50
2018-10-02T22:04:15.011Z,35.50
2018-10-02T22:06:43.838Z,35.50
2018-10-02T22:09:12.671Z,35.60
2018-10-02T22:11:41.526Z,35.60
2018-10-02T22:14:11.270Z,35.50
2018-10-02T22:16:40.143Z,35.50
2018-10-02T22:19:09.001Z,35.60
2018-10-02T22:21:38.593Z,35.50
2018-10-02T22:24:07.475Z,35.60
2018-10-02T22:26:36.665Z,35.60
2018-10-02T22:29:06.363Z,35.60
2018-10-02T22:31:35.259Z,35.60
2018-10-02T22:34:04.114Z,35.60
2018-10-02T22:36:32.947Z,35.60
2018-10-02T22:39:01.806Z,35.60
2018-10-02T22:41:32.667Z,35.70
2018-10-02T22:44:01.494Z,35.70
2018-10-02T22:46:30.465Z,35.70
2018-10-02T22:48:59.316Z,35.70
2018-10-02T22:51:28.650Z,35.70
2018-10-02T22:53:57.955Z,35.70
2018-10-02T22:56:26.839Z,35.70
2018-10-02T22:58:57.155Z,35.70
2018-10-02T23:01:25.995Z,35.70
2018-10-02T23:03:57.188Z,35.70
2018-10-02T23:06:26.029Z,35.80
2018-10-02T23:08:55.014Z,35.80
2018-10-02T23:11:23.896Z,36.30
2018-10-02T23:13:53.054Z,35.80
2018-10-02T23:16:21.947Z,35.80
2018-10-02T23:18:50.787Z,35.80
2018-10-02T23:21:20.216Z,35.80
2018-10-02T23:23:49.043Z,35.90
2018-10-02T23:26:19.758Z,35.90
2018-10-02T23:28:49.074Z,35.90
2018-10-02T23:31:17.927Z,35.90
2018-10-02T23:33:46.790Z,35.90
2018-10-02T23:36:15.619Z,35.90
2018-10-02T23:38:44.506Z,35.90
2018-10-02T23:41:13.381Z,35.90
2018-10-02T23:43:42.223Z,36.10
2018-10-02T23:46:11.058Z,35.90
2018-10-02T23:48:40.691Z,35.90
2018-10-02T23:51:09.879Z,35.90
2018-10-02T23:53:38.698Z,36.00
2018-10-02T23:56:07.555Z,36.00
2018-10-02T23:58:38.915Z,36.50
